Time;durP1;ratioP1;P1;durP2;ratioP2;P2;SDS_P1;SDS_P2;PMS_P1;PMS_P2;Temp;Humidity;BMP_temperature;BMP_pressure;BME280_temperature;BME280_humidity;BME280_pressure;Samples;Min_cycle;Max_cycle;Signal;HPM_P1;HPM_P2
2021/08/06 00:02:07;;;;;;;17.52;8.52;;;27.00;48.00;;;;;;5040041;28;20176;-75
2021/08/06 00:04:36;;;;;;;17.25;8.48;;;27.00;48.00;;;;;;5030897;28;20214;-76
2021/08/06 00:07:03;;;;;;;19.48;9.13;;;27.00;48.10;;;;;;5040003;28;20279;-75
2021/08/06 00:09:31;;;;;;;21.30;9.85;;;27.00;48.30;;;;;;5059920;28;20211;-75
2021/08/06 00:11:58;;;;;;;15.63;8.15;;;27.00;48.10;;;;;;5044924;28;20215;-75
2021/08/06 00:14:26;;;;;;;26.40;9.57;;;27.00;47.80;;;;;;5057803;28;20187;-75
2021/08/06 00:16:52;;;;;;;17.17;8.57;;;27.00;47.50;;;;;;5040553;28;20184;-75
2021/08/06 00:19:20;;;;;;;25.58;9.23;;;27.00;47.40;;;;;;5021958;28;20191;-75
2021/08/06 00:21:47;;;;;;;19.70;8.77;;;27.00;47.60;;;;;;5038379;28;20665;-75
2021/08/06 00:24:14;;;;;;;28.17;8.70;;;27.00;47.60;;;;;;5021111;28;20218;-75
2021/08/06 00:26:42;;;;;;;12.10;8.15;;;27.00;47.20;;;;;;5041136;28;20191;-76
2021/08/06 00:29:09;;;;;;;19.08;8.98;;;27.00;47.30;;;;;;5027017;28;20204;-75
2021/08/06 00:31:39;;;;;;;20.85;8.77;;;26.90;47.50;;;;;;5039551;28;20211;-76
2021/08/06 00:34:06;;;;;;;15.00;8.57;;;26.90;47.60;;;;;;5041902;28;20183;-75
2021/08/06 00:36:33;;;;;;;19.50;8.93;;;26.90;47.70;;;;;;5044736;28;20179;-75
2021/08/06 00:38:59;;;;;;;14.88;7.82;;;26.90;47.50;;;;;;5042043;28;20656;-75
2021/08/06 00:41:26;;;;;;;19.58;8.75;;;26.80;47.60;;;;;;5026087;28;20712;-75
2021/08/06 00:43:52;;;;;;;14.45;8.68;;;26.70;47.40;;;;;;5044895;28;20202;-75
2021/08/06 00:46:19;;;;;;;14.30;8.23;;;26.70;47.60;;;;;;5038611;28;20224;-75
2021/08/06 00:48:47;;;;;;;22.83;8.65;;;26.70;47.50;;;;;;5043297;28;20238;-75
2021/08/06 00:51:14;;;;;;;20.33;9.48;;;26.80;47.60;;;;;;5036610;28;20649;-75
2021/08/06 00:53:41;;;;;;;22.08;8.07;;;26.70;47.70;;;;;;5040451;28;20202;-75
2021/08/06 00:56:11;;;;;;;20.30;8.98;;;26.70;47.90;;;;;;5023621;28;20526;-75
2021/08/06 00:58:42;;;;;;;17.50;8.77;;;26.70;47.80;;;;;;5039562;28;20277;-75
2021/08/06 01:01:08;;;;;;;18.73;8.05;;;26.70;47.70;;;;;;5024737;28;21044;-76
2021/08/06 01:04:21;;;;;;;18.65;8.88;;;26.70;47.80;;;;;;5038857;28;20183;-74
2021/08/06 01:07:05;;;;;;;18.15;8.25;;;26.70;47.90;;;;;;5022021;28;20199;-75
2021/08/06 01:09:56;;;;;;;21.85;9.00;;;26.60;48.00;;;;;;5056069;28;20756;-75
2021/08/06 01:12:40;;;;;;;22.83;8.05;;;26.60;48.00;;;;;;5042625;28;20288;-75
2021/08/06 01:15:11;;;;;;;16.52;7.68;;;26.60;47.90;;;;;;5022108;28;20187;-76
2021/08/06 01:17:44;;;;;;;17.48;7.28;;;26.60;47.80;;;;;;5041478;28;20218;-75
2021/08/06 01:20:24;;;;;;;19.15;7.95;;;26.60;48.00;;;;;;5044024;28;20859;-75
2021/08/06 01:23:14;;;;;;;16.80;7.55;;;26.60;48.00;;;;;;5039525;28;20193;-75
2021/08/06 01:25:54;;;;;;;20.73;8.75;;;26.60;48.10;;;;;;5041448;28;20205;-75
2021/08/06 01:28:33;;;;;;;11.73;7.30;;;26.60;48.10;;;;;;5033822;28;20196;-75
2021/08/06 01:30:59;;;;;;;17.20;8.50;;;26.60;48.40;;;;;;5022554;28;20184;-76
2021/08/06 01:33:25;;;;;;;19.00;8.18;;;26.60;48.10;;;;;;5037996;28;20192;-75
2021/08/06 01:35:52;;;;;;;19.13;8.07;;;26.60;48.20;;;;;;5038656;28;20183;-75
2021/08/06 01:38:19;;;;;;;14.95;8.13;;;26.60;48.10;;;;;;5039254;28;20196;-75
2021/08/06 01:41:13;;;;;;;16.08;7.97;;;26.60;48.40;;;;;;5047024;28;20626;-75
2021/08/06 01:44:25;;;;;;;18.40;7.93;;;26.60;48.40;;;;;;5055232;28;20655;-75
2021/08/06 01:47:01;;;;;;;22.80;8.23;;;26.50;48.70;;;;;;5038511;28;20219;-75
2021/08/06 01:49:44;;;;;;;24.20;8.60;;;26.50;48.80;;;;;;5036391;28;20213;-75
2021/08/06 01:52:22;;;;;;;33.45;9.48;;;26.50;49.10;;;;;;5054848;28;20216;-75
2021/08/06 01:54:53;;;;;;;19.55;8.27;;;26.50;49.20;;;;;;5042640;28;20199;-75
2021/08/06 01:57:21;;;;;;;16.70;8.57;;;26.50;49.30;;;;;;5043441;28;20714;-75
2021/08/06 01:59:48;;;;;;;20.15;8.52;;;26.50;49.40;;;;;;5064077;28;20191;-75
2021/08/06 02:02:15;;;;;;;21.73;9.07;;;26.50;49.50;;;;;;5027470;28;20203;-75
2021/08/06 02:04:44;;;;;;;17.25;8.27;;;26.50;49.60;;;;;;5057651;28;20284;-75
2021/08/06 02:07:10;;;;;;;21.63;9.98;;;26.50;49.50;;;;;;5043871;28;20206;-76
2021/08/06 02:09:38;;;;;;;21.42;9.23;;;26.60;49.80;;;;;;5037907;28;20349;-76
2021/08/06 02:12:05;;;;;;;17.30;8.68;;;26.60;49.80;;;;;;5047827;28;20195;-75
2021/08/06 02:14:32;;;;;;;21.08;9.25;;;26.60;50.00;;;;;;5045898;28;20184;-76
2021/08/06 02:16:59;;;;;;;17.50;8.18;;;26.50;49.90;;;;;;5042998;28;20283;-75
2021/08/06 02:19:28;;;;;;;23.83;9.15;;;26.50;50.40;;;;;;5029991;28;20267;-76
2021/08/06 02:21:59;;;;;;;19.52;8.80;;;26.50;50.50;;;;;;5044423;28;20591;-75
2021/08/06 02:24:30;;;;;;;29.83;9.23;;;26.50;50.50;;;;;;5044338;28;20188;-75
2021/08/06 02:26:58;;;;;;;20.35;9.38;;;26.50;50.60;;;;;;5045008;28;20679;-75
2021/08/06 02:29:29;;;;;;;19.77;8.77;;;26.50;50.50;;;;;;5056907;28;20585;-76
2021/08/06 02:32:00;;;;;;;24.80;9.32;;;26.60;50.40;;;;;;5044453;28;20929;-75
2021/08/06 02:34:29;;;;;;;22.27;9.25;;;26.50;50.50;;;;;;5039407;28;20192;-75
2021/08/06 02:36:55;;;;;;;15.65;8.52;;;26.50;50.60;;;;;;5037737;28;20257;-76
2021/08/06 02:39:28;;;;;;;21.23;8.88;;;26.50;50.70;;;;;;5024739;28;20184;-75
2021/08/06 02:42:00;;;;;;;15.93;9.05;;;26.50;50.50;;;;;;5045183;28;20191;-75
2021/08/06 02:44:27;;;;;;;31.30;9.27;;;26.60;50.90;;;;;;5025291;28;20190;-75
2021/08/06 02:46:53;;;;;;;20.50;9.05;;;26.60;51.10;;;;;;5048982;28;20311;-75
2021/08/06 02:49:20;;;;;;;16.60;9.23;;;26.60;51.30;;;;;;5041567;28;20295;-75
2021/08/06 02:51:46;;;;;;;19.48;8.73;;;26.60;51.40;;;;;;5044762;28;20198;-75
2021/08/06 02:54:13;;;;;;;26.27;9.38;;;26.60;51.40;;;;;;5045652;28;20198;-75
2021/08/06 02:56:39;;;;;;;22.33;9.57;;;26.70;51.50;;;;;;5044390;28;20270;-75
2021/08/06 02:59:05;;;;;;;18.17;8.13;;;26.70;51.60;;;;;;5059825;28;20624;-75
2021/08/06 03:01:32;;;;;;;20.77;8.82;;;26.70;51.90;;;;;;5058299;28;20192;-73
2021/08/06 03:03:58;;;;;;;14.70;7.70;;;26.70;52.00;;;;;;5045903;28;20194;-75
2021/08/06 03:06:24;;;;;;;18.17;8.38;;;26.70;52.20;;;;;;5028853;28;20323;-76
2021/08/06 03:08:51;;;;;;;19.98;8.80;;;26.70;52.50;;;;;;5038934;28;20266;-75
2021/08/06 03:11:17;;;;;;;19.63;8.45;;;26.70;52.70;;;;;;5045549;28;20191;-75
2021/08/06 03:13:43;;;;;;;19.25;8.48;;;26.60;52.60;;;;;;5043965;28;20719;-75
2021/08/06 03:16:10;;;;;;;15.40;7.90;;;26.60;53.10;;;;;;5043198;28;20179;-75
2021/08/06 03:18:37;;;;;;;18.50;7.75;;;26.60;53.10;;;;;;5046984;28;20188;-75
2021/08/06 03:21:04;;;;;;;25.42;8.27;;;26.60;53.10;;;;;;5044162;28;20842;-75
2021/08/06 03:23:30;;;;;;;18.63;8.32;;;26.60;53.40;;;;;;5041260;28;20200;-75
2021/08/06 03:25:56;;;;;;;16.08;7.93;;;26.60;53.40;;;;;;5043135;28;20194;-75
2021/08/06 03:28:23;;;;;;;19.63;8.18;;;26.60;53.30;;;;;;5033743;28;20187;-75
2021/08/06 03:30:49;;;;;;;17.92;8.35;;;26.70;53.70;;;;;;5039129;28;20192;-75
2021/08/06 03:33:16;;;;;;;23.30;8.75;;;26.70;53.70;;;;;;5027539;28;20230;-74
2021/08/06 03:35:43;;;;;;;18.25;8.75;;;26.70;53.70;;;;;;5042622;28;20192;-75
2021/08/06 03:38:20;;;;;;;23.48;7.80;;;26.70;53.40;;;;;;5042994;28;20678;-75
2021/08/06 03:40:47;;;;;;;25.88;8.55;;;26.70;53.90;;;;;;5043745;28;20241;-75
2021/08/06 03:43:15;;;;;;;19.88;8.40;;;26.80;54.90;;;;;;5054577;28;20223;-75
2021/08/06 03:45:42;;;;;;;23.85;8.57;;;26.70;53.10;;;;;;5024954;28;20306;-75
2021/08/06 03:48:10;;;;;;;15.80;8.05;;;26.70;52.20;;;;;;5057929;28;20213;-75
2021/08/06 03:50:37;;;;;;;17.08;8.68;;;26.80;53.30;;;;;;5044785;28;20233;-75
2021/08/06 03:53:04;;;;;;;17.58;8.90;;;26.70;52.90;;;;;;5042664;28;20194;-75
2021/08/06 03:55:31;;;;;;;20.13;8.75;;;26.70;52.80;;;;;;5042645;28;20543;-75
2021/08/06 03:57:59;;;;;;;16.58;8.77;;;26.60;52.90;;;;;;5041736;28;20223;-75
2021/08/06 04:00:32;;;;;;;20.73;9.45;;;26.60;53.20;;;;;;5057667;28;20564;-75
2021/08/06 04:02:58;;;;;;;18.50;8.20;;;26.60;53.30;;;;;;5055953;28;20238;-75
2021/08/06 04:05:25;;;;;;;24.05;8.73;;;26.60;56.10;;;;;;5049995;28;20187;-76
2021/08/06 04:07:51;;;;;;;20.17;8.88;;;26.70;59.20;;;;;;5040241;28;20191;-75
2021/08/06 04:10:21;;;;;;;16.63;8.32;;;26.80;60.80;;;;;;5040135;28;20214;-75
2021/08/06 04:12:49;;;;;;;21.88;8.48;;;26.90;60.90;;;;;;5059911;28;20191;-76
2021/08/06 04:15:16;;;;;;;14.50;8.52;;;26.90;61.30;;;;;;5020896;28;20184;-76
2021/08/06 04:17:44;;;;;;;19.50;8.52;;;27.00;59.20;;;;;;5061654;28;20222;-76
2021/08/06 04:20:12;;;;;;;18.45;8.43;;;26.90;61.00;;;;;;5040847;28;20194;-76
2021/08/06 04:22:39;;;;;;;17.73;8.35;;;26.90;60.30;;;;;;5041372;28;20305;-75
2021/08/06 04:25:07;;;;;;;16.15;8.30;;;26.90;60.50;;;;;;5027993;28;20276;-75
2021/08/06 04:27:34;;;;;;;10.90;7.45;;;26.90;61.10;;;;;;5046636;28;20192;-75
2021/08/06 04:30:01;;;;;;;16.33;8.50;;;26.90;60.60;;;;;;5024863;28;20212;-75
2021/08/06 04:32:28;;;;;;;22.45;8.63;;;26.90;60.20;;;;;;5046926;28;20183;-76
2021/08/06 04:34:54;;;;;;;19.13;9.38;;;26.90;60.20;;;;;;5046181;28;20187;-75
2021/08/06 04:37:20;;;;;;;21.00;8.32;;;26.90;59.90;;;;;;5042936;28;20222;-76
2021/08/06 04:39:48;;;;;;;14.23;8.57;;;26.90;60.20;;;;;;5045315;28;20180;-75
2021/08/06 04:42:15;;;;;;;21.58;8.90;;;27.00;60.50;;;;;;5044307;28;20274;-75
2021/08/06 04:44:42;;;;;;;18.65;8.93;;;27.00;60.60;;;;;;5043688;28;20190;-75
2021/08/06 04:47:08;;;;;;;17.13;8.25;;;27.00;60.40;;;;;;5027714;28;20571;-75
2021/08/06 04:49:35;;;;;;;18.65;8.20;;;27.00;61.40;;;;;;5045505;28;20727;-75
2021/08/06 04:52:05;;;;;;;16.85;8.35;;;27.00;62.80;;;;;;5043892;28;20261;-76
2021/08/06 04:54:31;;;;;;;18.60;7.88;;;27.10;62.50;;;;;;5041838;28;20181;-75
2021/08/06 04:56:58;;;;;;;17.05;9.00;;;27.10;66.00;;;;;;5042047;28;20192;-75
2021/08/06 04:59:24;;;;;;;21.65;8.57;;;27.20;70.20;;;;;;5028339;28;20226;-75
2021/08/06 05:01:50;;;;;;;15.25;8.57;;;27.20;72.10;;;;;;5044118;28;20223;-75
2021/08/06 05:04:16;;;;;;;21.27;9.00;;;27.20;71.70;;;;;;5049518;28;20262;-75
2021/08/06 05:06:46;;;;;;;22.95;8.63;;;27.30;77.60;;;;;;5031467;28;20210;-75
2021/08/06 05:09:12;;;;;;;18.55;8.73;;;27.40;79.80;;;;;;5027841;28;20237;-75
2021/08/06 05:11:38;;;;;;;16.42;8.95;;;27.40;77.90;;;;;;5042511;28;20744;-75
2021/08/06 05:14:04;;;;;;;16.98;9.02;;;27.40;79.30;;;;;;5048687;28;20201;-75
2021/08/06 05:16:31;;;;;;;14.70;9.00;;;27.50;80.00;;;;;;5027212;28;20275;-75
2021/08/06 05:18:57;;;;;;;19.10;8.38;;;27.50;80.50;;;;;;5047622;28;20218;-75
2021/08/06 05:21:23;;;;;;;17.90;9.07;;;27.50;75.30;;;;;;5045063;28;20192;-74
2021/08/06 05:23:50;;;;;;;18.50;9.55;;;27.60;74.80;;;;;;5028171;28;20278;-75
2021/08/06 05:26:17;;;;;;;21.60;9.27;;;27.60;79.80;;;;;;5060361;28;20200;-76
2021/08/06 05:28:44;;;;;;;13.88;8.25;;;27.70;80.00;;;;;;5046795;28;20222;-75
2021/08/06 05:31:11;;;;;;;24.20;9.23;;;27.70;80.20;;;;;;5044836;28;20235;-75
2021/08/06 05:33:38;;;;;;;19.90;9.10;;;27.80;80.20;;;;;;5048988;28;20187;-75
2021/08/06 05:36:04;;;;;;;21.80;8.88;;;27.80;80.40;;;;;;5064086;28;20220;-76
2021/08/06 05:38:31;;;;;;;17.77;8.38;;;27.80;80.40;;;;;;5047527;28;20219;-75
2021/08/06 05:40:57;;;;;;;21.63;9.52;;;27.80;77.90;;;;;;5049554;28;20180;-75
2021/08/06 05:43:24;;;;;;;20.40;8.77;;;27.90;78.60;;;;;;5047924;28;20198;-75
2021/08/06 05:45:50;;;;;;;22.50;9.27;;;27.90;76.40;;;;;;5055250;28;20214;-74
2021/08/06 05:48:18;;;;;;;19.83;9.00;;;27.90;74.30;;;;;;5061841;28;20233;-75
2021/08/06 05:50:45;;;;;;;22.42;8.98;;;28.10;77.30;;;;;;5030749;28;20212;-76
2021/08/06 05:53:11;;;;;;;26.85;8.68;;;28.10;74.50;;;;;;5065622;28;20183;-75
2021/08/06 05:55:38;;;;;;;19.75;8.93;;;28.10;76.70;;;;;;5049494;28;20258;-75
2021/08/06 05:58:04;;;;;;;15.15;8.40;;;28.10;76.20;;;;;;5045160;28;20564;-75
2021/08/06 06:00:32;;;;;;;24.42;8.73;;;28.20;75.80;;;;;;5044041;28;20215;-76
2021/08/06 06:02:58;;;;;;;15.50;8.07;;;28.20;74.10;;;;;;5048843;28;20297;-76
2021/08/06 06:05:25;;;;;;;21.42;8.73;;;28.30;74.00;;;;;;5030910;28;20260;-76
2021/08/06 06:07:51;;;;;;;19.08;8.60;;;28.30;75.20;;;;;;5050279;28;20229;-75
2021/08/06 06:10:23;;;;;;;16.27;8.75;;;28.40;74.10;;;;;;5063594;28;20207;-75
2021/08/06 06:12:51;;;;;;;17.25;8.43;;;28.50;75.40;;;;;;5030181;28;20180;-75
2021/08/06 06:15:18;;;;;;;24.27;9.20;;;28.60;75.40;;;;;;5046244;28;20248;-75
2021/08/06 06:17:45;;;;;;;17.20;8.82;;;28.70;75.70;;;;;;5047518;28;20331;-75
2021/08/06 06:20:12;;;;;;;24.67;9.35;;;28.70;74.80;;;;;;5047033;28;20279;-76
2021/08/06 06:22:39;;;;;;;21.25;9.05;;;28.90;76.40;;;;;;5030590;28;20222;-74
2021/08/06 06:25:08;;;;;;;15.55;8.50;;;28.90;76.90;;;;;;5047878;28;20285;-76
2021/08/06 06:27:47;;;;;;;22.33;8.23;;;29.00;78.10;;;;;;5047558;28;20188;-75
2021/08/06 06:30:13;;;;;;;21.85;9.13;;;29.10;78.30;;;;;;5043722;28;20203;-75
2021/08/06 06:32:40;;;;;;;17.35;8.52;;;29.10;76.40;;;;;;5046790;28;20190;-75
2021/08/06 06:35:07;;;;;;;20.65;9.00;;;29.10;75.50;;;;;;5047187;28;20215;-75
2021/08/06 06:37:35;;;;;;;20.98;8.90;;;29.20;76.60;;;;;;5028966;28;20177;-75
2021/08/06 06:40:01;;;;;;;21.85;8.95;;;29.30;76.30;;;;;;5046581;28;20195;-75
2021/08/06 06:42:28;;;;;;;17.00;8.52;;;29.30;76.00;;;;;;5062086;28;20668;-75
2021/08/06 06:44:54;;;;;;;28.73;9.07;;;29.40;75.60;;;;;;5048774;28;20191;-75
2021/08/06 06:47:23;;;;;;;22.88;9.10;;;29.50;75.10;;;;;;5048684;28;20230;-75
2021/08/06 06:49:49;;;;;;;21.80;8.68;;;29.60;74.90;;;;;;5045510;28;20215;-75
2021/08/06 06:52:16;;;;;;;20.08;8.50;;;29.80;74.60;;;;;;5048459;28;20195;-75
2021/08/06 06:54:42;;;;;;;19.33;7.90;;;29.80;74.10;;;;;;5063186;28;20620;-76
2021/08/06 06:57:08;;;;;;;16.73;8.95;;;29.90;73.90;;;;;;5049592;28;20260;-75
2021/08/06 06:59:35;;;;;;;18.55;8.85;;;30.00;74.30;;;;;;5061712;28;20194;-75
2021/08/06 07:02:02;;;;;;;27.20;9.20;;;30.00;73.70;;;;;;5045262;28;20195;-75
2021/08/06 07:04:29;;;;;;;22.33;8.88;;;30.10;75.60;;;;;;5062742;28;20271;-74
2021/08/06 07:06:56;;;;;;;21.77;8.10;;;30.10;73.30;;;;;;5044625;28;20195;-73
2021/08/06 07:09:22;;;;;;;11.60;8.18;;;30.10;73.90;;;;;;5030708;28;20672;-73
2021/08/06 07:11:48;;;;;;;23.85;8.43;;;30.00;74.80;;;;;;5047446;28;20270;-75
2021/08/06 07:14:15;;;;;;;15.05;8.45;;;30.20;79.70;;;;;;5042887;28;20307;-73
2021/08/06 07:16:41;;;;;;;21.33;8.13;;;30.20;77.40;;;;;;5029819;28;20191;-72
2021/08/06 07:19:09;;;;;;;23.23;9.18;;;30.20;78.50;;;;;;5044847;28;20188;-72
2021/08/06 07:21:35;;;;;;;17.65;8.40;;;30.30;79.90;;;;;;5044396;28;20187;-75
2021/08/06 07:24:01;;;;;;;19.38;8.55;;;30.40;84.20;;;;;;5044284;28;20659;-74
2021/08/06 07:26:28;;;;;;;22.35;9.13;;;30.60;81.90;;;;;;5062670;28;20273;-76
2021/08/06 07:28:55;;;;;;;21.42;8.77;;;30.60;86.40;;;;;;5043028;28;20285;-75
2021/08/06 07:31:21;;;;;;;19.58;8.00;;;30.90;83.80;;;;;;5044575;28;20183;-73
2021/08/06 07:33:48;;;;;;;21.83;8.48;;;30.80;84.90;;;;;;5048209;28;20191;-75
2021/08/06 07:36:14;;;;;;;21.60;9.75;;;30.70;85.30;;;;;;5044771;28;20211;-73
2021/08/06 07:38:40;;;;;;;25.60;9.38;;;30.90;84.90;;;;;;5045164;28;20644;-75
2021/08/06 07:41:09;;;;;;;23.92;8.25;;;31.10;82.80;;;;;;5044528;28;20306;-73
2021/08/06 07:43:36;;;;;;;19.02;8.80;;;31.10;81.00;;;;;;5043158;28;20191;-76
2021/08/06 07:46:02;;;;;;;21.88;9.45;;;31.10;81.30;;;;;;5045535;28;20230;-75
2021/08/06 07:48:31;;;;;;;21.42;9.07;;;31.20;77.90;;;;;;5041085;28;20272;-76
2021/08/06 07:50:57;;;;;;;23.42;9.68;;;31.20;78.30;;;;;;5046085;28;20180;-72
2021/08/06 07:53:23;;;;;;;22.00;9.57;;;31.50;77.70;;;;;;5045585;28;20187;-75
2021/08/06 07:55:52;;;;;;;22.00;9.77;;;31.50;78.70;;;;;;5045670;28;20273;-75
2021/08/06 07:58:19;;;;;;;21.73;8.40;;;31.60;80.10;;;;;;5044411;28;20217;-75
2021/08/06 08:00:45;;;;;;;19.20;8.40;;;31.80;83.70;;;;;;5042938;28;20635;-75
2021/08/06 08:03:12;;;;;;;18.90;8.50;;;31.70;81.40;;;;;;5038485;28;20674;-72
2021/08/06 08:05:38;;;;;;;14.73;9.27;;;31.80;80.40;;;;;;5044343;28;20180;-73
2021/08/06 08:08:05;;;;;;;27.38;9.15;;;32.00;78.70;;;;;;5042552;28;20245;-73
2021/08/06 08:10:32;;;;;;;25.65;9.00;;;32.10;83.20;;;;;;5017804;28;20217;-73
2021/08/06 08:12:59;;;;;;;21.08;9.35;;;32.40;84.40;;;;;;5042250;28;20291;-73
2021/08/06 08:15:25;;;;;;;23.15;8.95;;;32.50;82.10;;;;;;5057273;28;20184;-73
2021/08/06 08:17:52;;;;;;;26.48;8.98;;;32.60;80.80;;;;;;5061453;28;20184;-73
2021/08/06 08:20:18;;;;;;;27.10;8.70;;;32.70;83.80;;;;;;5041879;28;20518;-73
2021/08/06 08:22:45;;;;;;;27.55;9.07;;;32.80;84.80;;;;;;5030679;28;20192;-74
2021/08/06 08:25:36;;;;;;;19.98;8.80;;;32.90;84.10;;;;;;5042184;28;20279;-72
2021/08/06 08:28:03;;;;;;;20.38;8.25;;;33.00;87.70;;;;;;5038468;28;20234;-72
2021/08/06 08:30:29;;;;;;;27.52;8.50;;;32.90;87.60;;;;;;5040684;28;20294;-73
2021/08/06 08:32:55;;;;;;;21.70;8.82;;;33.00;90.00;;;;;;5023156;28;20228;-74
2021/08/06 08:35:21;;;;;;;26.40;8.52;;;33.00;90.00;;;;;;5039093;28;20193;-73
2021/08/06 08:37:48;;;;;;;26.45;8.40;;;33.00;90.20;;;;;;5055119;28;20179;-73
2021/08/06 08:40:14;;;;;;;28.17;8.85;;;33.10;90.20;;;;;;5023165;28;20188;-73
2021/08/06 08:42:43;;;;;;;19.98;8.20;;;33.00;90.30;;;;;;5041453;28;20657;-72
2021/08/06 08:45:10;;;;;;;17.70;7.80;;;33.00;90.90;;;;;;5053468;28;20237;-72
2021/08/06 08:47:37;;;;;;;27.02;8.65;;;33.10;90.50;;;;;;5031627;28;20203;-72
2021/08/06 08:50:07;;;;;;;22.23;8.43;;;33.10;89.80;;;;;;5037184;28;20687;-73
2021/08/06 08:52:34;;;;;;;28.02;8.00;;;33.10;88.30;;;;;;5015378;28;20184;-73
2021/08/06 08:55:02;;;;;;;27.50;8.20;;;33.20;88.20;;;;;;5034093;28;20187;-73
2021/08/06 08:57:29;;;;;;;20.42;8.65;;;33.40;85.30;;;;;;5041156;28;20212;-73
2021/08/06 08:59:58;;;;;;;27.67;8.50;;;33.40;84.80;;;;;;5040267;28;20193;-73
2021/08/06 09:02:26;;;;;;;21.33;8.25;;;33.30;84.50;;;;;;5038968;28;20262;-73
2021/08/06 09:05:16;;;;;;;24.23;8.70;;;33.40;84.00;;;;;;5037925;28;20659;-74
2021/08/06 09:07:43;;;;;;;24.27;7.88;;;33.40;84.70;;;;;;5059314;28;20624;-73
2021/08/06 09:10:16;;;;;;;23.38;8.23;;;33.50;83.30;;;;;;5046251;28;20208;-73
2021/08/06 09:13:02;;;;;;;16.48;8.20;;;33.50;82.50;;;;;;5041052;28;20176;-73
2021/08/06 09:15:53;;;;;;;19.30;8.27;;;33.70;82.20;;;;;;5043712;28;20270;-72
2021/08/06 09:18:28;;;;;;;20.48;8.52;;;33.90;80.70;;;;;;5021132;28;20184;-73
2021/08/06 09:21:01;;;;;;;24.13;9.23;;;34.00;79.50;;;;;;5058161;28;20636;-74
2021/08/06 09:23:50;;;;;;;20.27;8.23;;;34.00;77.60;;;;;;5040425;28;20176;-73
2021/08/06 09:26:41;;;;;;;24.85;8.20;;;34.00;78.30;;;;;;5043408;28;20271;-73
2021/08/06 09:29:17;;;;;;;16.10;7.72;;;34.00;75.60;;;;;;5036944;28;20982;-72
2021/08/06 09:31:59;;;;;;;17.75;8.68;;;34.10;75.20;;;;;;5026774;28;20575;-75
2021/08/06 09:34:32;;;;;;;22.38;9.23;;;34.30;72.90;;;;;;5037737;28;20184;-73
2021/08/06 09:37:18;;;;;;;23.70;9.00;;;34.30;73.60;;;;;;5037444;28;20261;-75
2021/08/06 09:39:50;;;;;;;26.60;8.32;;;34.30;74.40;;;;;;5038457;28;20196;-73
2021/08/06 09:42:29;;;;;;;23.17;8.45;;;34.50;72.40;;;;;;5056356;28;20238;-73
2021/08/06 09:45:10;;;;;;;25.60;8.77;;;34.50;70.00;;;;;;5044659;28;20245;-73
2021/08/06 09:47:39;;;;;;;24.63;8.45;;;34.50;70.90;;;;;;5041179;28;20568;-76
2021/08/06 09:50:18;;;;;;;18.77;8.25;;;34.90;71.80;;;;;;5020489;28;20204;-76
2021/08/06 09:52:51;;;;;;;22.95;9.25;;;34.80;72.70;;;;;;5046889;28;20187;-77
2021/08/06 09:55:27;;;;;;;19.05;8.25;;;35.00;71.20;;;;;;5037731;28;20192;-76
2021/08/06 09:57:55;;;;;;;18.10;8.10;;;35.20;70.50;;;;;;5019294;28;20209;-76
2021/08/06 10:00:26;;;;;;;21.13;8.63;;;35.50;70.30;;;;;;5041807;28;20188;-77
2021/08/06 10:02:54;;;;;;;20.10;8.13;;;35.80;68.10;;;;;;5028124;28;20180;-75
2021/08/06 10:05:24;;;;;;;23.73;8.60;;;35.70;68.30;;;;;;5039491;28;20575;-76
2021/08/06 10:07:54;;;;;;;21.58;8.93;;;35.90;69.20;;;;;;5042786;28;20734;-76
2021/08/06 10:10:31;;;;;;;18.40;8.77;;;36.40;67.50;;;;;;5040656;28;20294;-76
2021/08/06 10:13:00;;;;;;;17.98;8.38;;;36.50;67.40;;;;;;5019963;28;20194;-76
2021/08/06 10:15:30;;;;;;;21.10;8.43;;;36.40;67.20;;;;;;5040079;28;20184;-76
2021/08/06 10:17:58;;;;;;;25.20;8.68;;;36.50;66.50;;;;;;5027834;28;20645;-75
2021/08/06 10:20:28;;;;;;;23.65;9.10;;;36.40;66.80;;;;;;5047631;28;20184;-76
2021/08/06 10:22:56;;;;;;;24.42;9.27;;;36.20;68.30;;;;;;5039858;28;20202;-75
2021/08/06 10:25:25;;;;;;;31.55;8.98;;;36.10;69.10;;;;;;5047881;28;20223;-76
2021/08/06 10:27:53;;;;;;;23.95;8.73;;;36.10;70.40;;;;;;5030769;28;20278;-76
2021/08/06 10:30:29;;;;;;;21.88;8.60;;;36.30;70.50;;;;;;5046181;28;20211;-74
2021/08/06 10:33:28;;;;;;;20.17;8.48;;;36.40;71.30;;;;;;5047853;28;20215;-74
2021/08/06 10:36:06;;;;;;;18.75;8.13;;;36.80;70.30;;;;;;5031460;28;20184;-73
2021/08/06 10:38:44;;;;;;;22.48;8.93;;;37.60;69.10;;;;;;5045443;28;20201;-74
2021/08/06 10:41:20;;;;;;;24.77;9.70;;;38.30;69.10;;;;;;5045420;28;20211;-76
2021/08/06 10:43:50;;;;;;;19.25;8.70;;;37.90;69.70;;;;;;5043347;28;20191;-73
2021/08/06 10:46:19;;;;;;;19.52;8.27;;;37.50;71.10;;;;;;5064627;28;20225;-74
2021/08/06 10:48:55;;;;;;;21.95;8.80;;;37.00;70.90;;;;;;5021257;28;20253;-74
2021/08/06 10:51:29;;;;;;;21.17;8.13;;;36.70;71.10;;;;;;5050828;28;20187;-74
2021/08/06 10:53:59;;;;;;;17.40;7.97;;;36.60;72.20;;;;;;5062630;28;20195;-75
2021/08/06 10:56:34;;;;;;;18.85;8.48;;;36.40;71.90;;;;;;5039384;28;20242;-74
2021/08/06 10:59:03;;;;;;;20.00;8.73;;;36.30;72.10;;;;;;5041321;28;20187;-74
2021/08/06 11:01:32;;;;;;;24.13;8.52;;;36.40;70.40;;;;;;5044884;28;20283;-73
2021/08/06 11:04:06;;;;;;;28.63;8.52;;;36.50;70.00;;;;;;5027396;28;20191;-76
2021/08/06 11:06:42;;;;;;;27.25;9.00;;;36.40;68.80;;;;;;5023566;28;20191;-76
2021/08/06 11:09:27;;;;;;;30.67;9.13;;;36.30;69.40;;;;;;5024137;28;20219;-76
2021/08/06 11:11:56;;;;;;;20.08;8.95;;;36.30;69.60;;;;;;5042213;28;20187;-76
2021/08/06 11:14:29;;;;;;;24.55;9.27;;;36.40;71.30;;;;;;5040745;28;20552;-74
2021/08/06 11:17:15;;;;;;;27.40;8.98;;;36.30;68.70;;;;;;5047573;28;20237;-76
2021/08/06 11:19:54;;;;;;;22.40;8.35;;;36.20;69.90;;;;;;5048057;28;20550;-76
2021/08/06 11:22:33;;;;;;;18.05;8.52;;;36.20;69.10;;;;;;5023087;28;20196;-74
2021/08/06 11:25:07;;;;;;;24.27;8.60;;;36.10;71.40;;;;;;5040793;28;20722;-76
2021/08/06 11:27:41;;;;;;;27.50;9.43;;;35.80;70.20;;;;;;5045957;28;20194;-76
2021/08/06 11:30:20;;;;;;;18.70;8.70;;;35.90;68.60;;;;;;5043741;28;20227;-76
2021/08/06 11:33:00;;;;;;;21.73;8.77;;;35.70;69.80;;;;;;5026811;28;20811;-75
2021/08/06 11:35:38;;;;;;;21.92;7.85;;;35.60;69.90;;;;;;5058635;28;20636;-74
2021/08/06 11:38:11;;;;;;;22.83;8.07;;;35.90;67.40;;;;;;5045634;28;20183;-75
2021/08/06 11:40:40;;;;;;;30.73;8.80;;;36.20;63.40;;;;;;5026619;28;20191;-75
2021/08/06 11:43:19;;;;;;;26.85;8.35;;;36.40;62.90;;;;;;5057548;28;20329;-76
2021/08/06 11:45:52;;;;;;;18.98;7.70;;;36.30;61.30;;;;;;5042316;28;20245;-74
2021/08/06 11:48:20;;;;;;;20.08;7.32;;;36.00;63.20;;;;;;5044215;28;20183;-75
2021/08/06 11:50:56;;;;;;;18.80;8.13;;;35.90;60.20;;;;;;5027241;28;20210;-75
2021/08/06 11:53:30;;;;;;;18.25;7.50;;;36.20;55.50;;;;;;5040883;28;20287;-74
2021/08/06 11:55:59;;;;;;;15.55;8.43;;;35.80;55.90;;;;;;5045969;28;20203;-76
2021/08/06 11:58:40;;;;;;;13.45;7.90;;;35.70;52.20;;;;;;5045366;28;20186;-75
2021/08/06 12:01:16;;;;;;;16.50;7.80;;;35.50;54.20;;;;;;5041931;28;20623;-75
2021/08/06 12:03:48;;;;;;;18.20;8.27;;;35.30;53.90;;;;;;5043188;28;20191;-75
2021/08/06 12:06:16;;;;;;;23.13;7.90;;;35.50;53.30;;;;;;5045736;28;20652;-74
2021/08/06 12:08:45;;;;;;;19.08;7.03;;;35.50;52.50;;;;;;5047312;28;20263;-75
2021/08/06 12:11:21;;;;;;;15.07;6.97;;;35.70;51.50;;;;;;5030732;28;20179;-76
2021/08/06 12:13:50;;;;;;;18.80;8.32;;;35.90;50.00;;;;;;5029486;28;20207;-75
2021/08/06 12:16:35;;;;;;;17.60;8.32;;;35.40;54.40;;;;;;5028726;28;20187;-75
2021/08/06 12:19:03;;;;;;;20.27;7.47;;;35.20;54.50;;;;;;5025953;28;20249;-75
2021/08/06 12:21:33;;;;;;;17.27;8.13;;;35.10;55.60;;;;;;5044130;28;20191;-76
2021/08/06 12:24:16;;;;;;;23.77;8.05;;;35.20;52.40;;;;;;5041062;28;20237;-75
2021/08/06 12:26:51;;;;;;;19.13;8.45;;;35.40;54.00;;;;;;5022311;28;20191;-75
2021/08/06 12:29:27;;;;;;;17.48;8.25;;;35.20;55.30;;;;;;5043239;28;20210;-75
2021/08/06 12:32:04;;;;;;;22.88;8.35;;;35.00;55.30;;;;;;5041206;28;20515;-75
2021/08/06 12:34:37;;;;;;;22.33;9.35;;;35.10;54.40;;;;;;5055949;28;20269;-76
2021/08/06 12:37:12;;;;;;;16.50;9.20;;;35.20;55.70;;;;;;5042900;28;20233;-75
2021/08/06 12:39:58;;;;;;;15.05;9.77;;;35.10;57.20;;;;;;5043883;28;20214;-76
2021/08/06 12:42:36;;;;;;;24.00;11.32;;;35.20;56.80;;;;;;5045289;28;20183;-75
2021/08/06 12:45:15;;;;;;;26.65;16.77;;;35.10;56.80;;;;;;5043222;28;20605;-75
2021/08/06 12:47:48;;;;;;;35.08;19.27;;;35.80;55.10;;;;;;5060691;28;20201;-75
2021/08/06 12:50:21;;;;;;;39.60;25.27;;;35.80;53.00;;;;;;5029783;28;20219;-76
2021/08/06 12:53:06;;;;;;;35.10;22.25;;;35.90;52.80;;;;;;5041656;28;20220;-75